Time;durP1;ratioP1;P1;durP2;ratioP2;P2;SDS_P1;SDS_P2;PMS_P1;PMS_P2;Temp;Humidity;BMP_temperature;BMP_pressure;BME280_temperature;BME280_humidity;BME280_pressure;Samples;Min_cycle;Max_cycle;Signal;HPM_P1;HPM_P2
2023/01/24 00:02:13;;;;;;;21.27;14.10;;;;;;;;;;5017956;28;20481;-79
2023/01/24 00:04:39;;;;;;;22.50;14.43;;;;;;;;;;5011052;28;20457;-80
2023/01/24 00:07:06;;;;;;;22.48;13.95;;;;;;;;;;5015638;28;20436;-79
2023/01/24 00:09:32;;;;;;;22.52;14.90;;;;;;;;;;5002700;28;20548;-80
2023/01/24 00:11:58;;;;;;;21.52;14.32;;;;;;;;;;4987652;28;21715;-80
2023/01/24 00:14:24;;;;;;;22.17;14.37;;;;;;;;;;5018680;28;20912;-80
2023/01/24 00:16:50;;;;;;;20.77;13.82;;;;;;;;;;5003273;28;20414;-80
2023/01/24 00:19:16;;;;;;;20.45;14.15;;;;;;;;;;5005468;28;20419;-80
2023/01/24 00:21:42;;;;;;;22.27;15.43;;;;;;;;;;5002924;28;20432;-80
2023/01/24 00:24:08;;;;;;;20.75;14.25;;;;;;;;;;5019341;28;20463;-80
2023/01/24 00:26:34;;;;;;;21.07;14.60;;;;;;;;;;5005598;28;20459;-80
2023/01/24 00:29:00;;;;;;;22.92;15.45;;;;;;;;;;5003629;28;20405;-80
2023/01/24 00:31:26;;;;;;;23.13;14.80;;;;;;;;;;5015616;28;20405;-80
2023/01/24 00:33:52;;;;;;;22.73;15.27;;;;;;;;;;4996067;28;20470;-80
2023/01/24 00:36:18;;;;;;;24.17;15.32;;;;;;;;;;5012462;28;20515;-79
2023/01/24 00:38:45;;;;;;;23.87;15.60;;;;;;;;;;5002750;28;20509;-80
2023/01/24 00:41:11;;;;;;;25.15;15.40;;;;;;;;;;4990156;28;20574;-80
2023/01/24 00:43:37;;;;;;;24.48;15.88;;;;;;;;;;4993976;28;20411;-79
2023/01/24 00:46:05;;;;;;;25.95;15.48;;;;;;;;;;4990874;28;20487;-80
2023/01/24 00:48:32;;;;;;;25.83;16.40;;;;;;;;;;5010398;28;20432;-80
2023/01/24 00:50:58;;;;;;;28.50;16.25;;;;;;;;;;5013494;28;20443;-80
2023/01/24 00:53:25;;;;;;;26.15;16.52;;;;;;;;;;5013106;28;20455;-80
2023/01/24 00:55:54;;;;;;;25.92;16.25;;;;;;;;;;4978251;28;20467;-80
2023/01/24 00:58:20;;;;;;;25.13;16.10;;;;;;;;;;4993888;28;20456;-80
2023/01/24 01:00:47;;;;;;;25.35;16.45;;;;;;;;;;5012532;28;20531;-79
2023/01/24 01:03:14;;;;;;;26.08;16.33;;;;;;;;;;4997195;28;20401;-80
2023/01/24 01:05:40;;;;;;;26.33;16.60;;;;;;;;;;4996652;28;20435;-80
2023/01/24 01:08:07;;;;;;;25.92;16.63;;;;;;;;;;4994134;28;20425;-79
2023/01/24 01:10:33;;;;;;;26.48;16.25;;;;;;;;;;5012512;28;20413;-79
2023/01/24 01:12:59;;;;;;;25.80;16.07;;;;;;;;;;4994921;28;20596;-79
2023/01/24 01:15:25;;;;;;;26.63;15.77;;;;;;;;;;4995683;28;20432;-79
2023/01/24 01:17:51;;;;;;;25.25;16.05;;;;;;;;;;4995170;28;20466;-80
2023/01/24 01:20:17;;;;;;;26.67;16.83;;;;;;;;;;5011236;28;20428;-79
2023/01/24 01:22:43;;;;;;;27.13;16.42;;;;;;;;;;4979117;28;20428;-79
2023/01/24 01:25:09;;;;;;;25.33;16.33;;;;;;;;;;5012826;28;20401;-79
2023/01/24 01:27:35;;;;;;;26.15;15.90;;;;;;;;;;5012409;28;20920;-80
2023/01/24 01:30:02;;;;;;;23.83;15.83;;;;;;;;;;4973390;28;20497;-80
2023/01/24 01:32:29;;;;;;;27.02;16.23;;;;;;;;;;4989684;28;20422;-80
2023/01/24 01:34:55;;;;;;;27.17;15.95;;;;;;;;;;4993201;28;20417;-80
2023/01/24 01:37:21;;;;;;;24.83;16.13;;;;;;;;;;4995131;28;20424;-79
2023/01/24 01:39:47;;;;;;;24.65;16.52;;;;;;;;;;5011601;28;20428;-79
2023/01/24 01:42:14;;;;;;;29.10;17.03;;;;;;;;;;4992217;28;20432;-79
2023/01/24 01:44:43;;;;;;;24.63;16.63;;;;;;;;;;5010500;28;20424;-80
2023/01/24 01:47:18;;;;;;;26.35;17.58;;;;;;;;;;4978638;28;20482;-80
2023/01/24 01:49:46;;;;;;;29.10;17.42;;;;;;;;;;4992834;28;20454;-79
2023/01/24 01:52:12;;;;;;;24.70;16.05;;;;;;;;;;4994119;28;20429;-79
2023/01/24 01:54:40;;;;;;;26.73;16.27;;;;;;;;;;5012219;28;20401;-79
2023/01/24 01:57:16;;;;;;;27.80;16.80;;;;;;;;;;4994197;28;20449;-80
2023/01/24 01:59:51;;;;;;;27.65;17.48;;;;;;;;;;5001230;28;20765;-80
2023/01/24 02:02:19;;;;;;;27.38;17.10;;;;;;;;;;4981954;28;20828;-80
2023/01/24 02:04:47;;;;;;;25.87;16.87;;;;;;;;;;5010423;28;20428;-80
2023/01/24 02:07:16;;;;;;;28.42;17.40;;;;;;;;;;5010945;28;20464;-79
2023/01/24 02:09:43;;;;;;;27.17;17.13;;;;;;;;;;5010060;28;20936;-79
2023/01/24 02:12:19;;;;;;;28.15;17.40;;;;;;;;;;4994209;28;20416;-80
2023/01/24 02:17:31;;;;;;;25.63;16.58;;;;;;;;;;5010161;28;20424;-79
2023/01/24 02:20:09;;;;;;;26.98;17.95;;;;;;;;;;5002692;28;20430;-79
2023/01/24 02:22:58;;;;;;;27.42;17.80;;;;;;;;;;4993777;28;20523;-80
2023/01/24 02:25:34;;;;;;;28.27;17.63;;;;;;;;;;4966917;28;20431;-80
2023/01/24 02:28:01;;;;;;;27.90;18.30;;;;;;;;;;4994091;28;20428;-79
2023/01/24 02:30:27;;;;;;;29.25;17.83;;;;;;;;;;5011258;28;20420;-79
2023/01/24 02:32:53;;;;;;;29.25;18.45;;;;;;;;;;4976341;28;20916;-79
2023/01/24 02:35:22;;;;;;;27.20;18.30;;;;;;;;;;5004392;28;20832;-79
2023/01/24 02:37:48;;;;;;;28.98;18.42;;;;;;;;;;4994627;28;20424;-80
2023/01/24 02:40:15;;;;;;;30.45;18.63;;;;;;;;;;4992155;28;20424;-80
2023/01/24 02:42:41;;;;;;;31.13;18.65;;;;;;;;;;4993619;28;20437;-79
2023/01/24 02:45:16;;;;;;;30.98;18.52;;;;;;;;;;4993030;28;20512;-80
2023/01/24 02:47:44;;;;;;;30.35;18.83;;;;;;;;;;5009805;28;20954;-79
2023/01/24 02:50:10;;;;;;;31.73;18.88;;;;;;;;;;4990790;28;20475;-79
2023/01/24 02:55:21;;;;;;;28.20;18.20;;;;;;;;;;4990824;28;20438;-80
2023/01/24 02:58:05;;;;;;;29.60;18.47;;;;;;;;;;4993569;28;20417;-80
2023/01/24 03:00:32;;;;;;;31.98;18.65;;;;;;;;;;4993974;28;20432;-80
2023/01/24 03:02:58;;;;;;;29.23;18.48;;;;;;;;;;5009797;28;20416;-79
2023/01/24 03:05:24;;;;;;;29.77;18.95;;;;;;;;;;5009393;28;20425;-79
2023/01/24 03:07:50;;;;;;;32.40;18.95;;;;;;;;;;5006530;28;20425;-80
2023/01/24 03:10:17;;;;;;;30.80;18.70;;;;;;;;;;4991324;28;20728;-79
2023/01/24 03:34:50;;;;;;;29.77;19.17;;;;;;;;;;5009124;28;20479;-79
2023/01/24 03:39:53;;;;;;;30.35;18.55;;;;;;;;;;5010569;28;20408;-79
2023/01/24 03:40:04;;;;;;;29.08;19.23;;;;;;;;;;5009853;28;20413;-79
2023/01/24 03:42:30;;;;;;;28.63;18.65;;;;;;;;;;4975676;28;20431;-79
2023/01/24 03:44:56;;;;;;;28.08;18.67;;;;;;;;;;5009380;28;20496;-79
2023/01/24 03:47:22;;;;;;;28.60;17.90;;;;;;;;;;5008207;28;20467;-79
2023/01/24 03:52:33;;;;;;;27.58;18.20;;;;;;;;;;4991140;28;20456;-79
2023/01/24 03:55:00;;;;;;;29.15;18.20;;;;;;;;;;5000963;28;20420;-76
2023/01/24 03:57:27;;;;;;;29.50;18.23;;;;;;;;;;5009842;28;20424;-76
2023/01/24 03:59:54;;;;;;;25.85;16.55;;;;;;;;;;4995738;28;21014;-75
2023/01/24 04:02:20;;;;;;;24.02;15.48;;;;;;;;;;5013654;28;20879;-76
2023/01/24 04:07:32;;;;;;;23.60;16.27;;;;;;;;;;5012203;28;20871;-76
2023/01/24 04:09:58;;;;;;;20.77;14.60;;;;;;;;;;4996191;28;20707;-76
2023/01/24 04:12:25;;;;;;;21.20;13.90;;;;;;;;;;5011767;28;20431;-76
2023/01/24 04:14:51;;;;;;;20.90;14.63;;;;;;;;;;5009174;28;20920;-76
2023/01/24 04:17:17;;;;;;;20.73;14.25;;;;;;;;;;4996733;28;20456;-77
2023/01/24 04:19:43;;;;;;;21.83;14.25;;;;;;;;;;4994576;28;20424;-76
2023/01/24 04:22:09;;;;;;;19.65;13.50;;;;;;;;;;4997312;28;20550;-76
2023/01/24 04:24:35;;;;;;;20.55;13.57;;;;;;;;;;4995527;28;20507;-76
2023/01/24 04:27:01;;;;;;;21.03;14.07;;;;;;;;;;5011425;28;20451;-76
2023/01/24 04:29:27;;;;;;;18.58;12.80;;;;;;;;;;4982092;28;20559;-76
2023/01/24 04:31:53;;;;;;;18.40;13.20;;;;;;;;;;4996637;28;20420;-77
2023/01/24 04:34:19;;;;;;;18.60;13.65;;;;;;;;;;4996643;28;20924;-76
2023/01/24 04:36:45;;;;;;;20.33;13.82;;;;;;;;;;5013736;28;20749;-76
2023/01/24 04:39:11;;;;;;;21.53;14.27;;;;;;;;;;4981333;28;20478;-76
2023/01/24 04:41:37;;;;;;;21.33;14.48;;;;;;;;;;4991132;28;20423;-76
2023/01/24 04:44:04;;;;;;;20.27;13.90;;;;;;;;;;4995732;28;20483;-76
2023/01/24 04:46:30;;;;;;;22.00;15.35;;;;;;;;;;4995190;28;20864;-76
2023/01/24 04:48:56;;;;;;;21.13;15.27;;;;;;;;;;4980532;28;20429;-76
2023/01/24 04:51:22;;;;;;;22.50;16.17;;;;;;;;;;5011552;28;20425;-76
2023/01/24 04:53:48;;;;;;;21.42;14.90;;;;;;;;;;4996029;28;20427;-77
2023/01/24 04:56:14;;;;;;;22.77;15.75;;;;;;;;;;4993092;28;20753;-77
2023/01/24 04:58:40;;;;;;;21.67;14.75;;;;;;;;;;5011188;28;20421;-77
2023/01/24 05:01:06;;;;;;;24.77;15.97;;;;;;;;;;4995975;28;20428;-76
2023/01/24 05:03:32;;;;;;;24.70;15.27;;;;;;;;;;5010942;28;20467;-77
2023/01/24 05:05:59;;;;;;;23.83;15.82;;;;;;;;;;5011873;28;20962;-77
2023/01/24 05:08:26;;;;;;;22.17;15.75;;;;;;;;;;4996690;28;20412;-75
2023/01/24 05:10:52;;;;;;;24.73;16.52;;;;;;;;;;5008313;28;20517;-76
2023/01/24 05:13:18;;;;;;;25.40;16.95;;;;;;;;;;4975257;28;20551;-75
2023/01/24 05:15:49;;;;;;;26.00;18.95;;;;;;;;;;4996357;28;20412;-76
2023/01/24 05:18:15;;;;;;;30.05;21.65;;;;;;;;;;5012839;28;20458;-75
2023/01/24 05:20:41;;;;;;;26.42;18.45;;;;;;;;;;5011774;28;20401;-75
2023/01/24 05:23:07;;;;;;;25.90;17.33;;;;;;;;;;4988700;28;20429;-76
2023/01/24 05:25:33;;;;;;;25.30;17.40;;;;;;;;;;5011082;28;20431;-76
2023/01/24 05:27:59;;;;;;;26.52;18.40;;;;;;;;;;4996209;28;20448;-76
2023/01/24 05:30:26;;;;;;;24.70;16.30;;;;;;;;;;5007192;28;20433;-76
2023/01/24 05:32:55;;;;;;;25.08;17.05;;;;;;;;;;4996565;28;20948;-75
2023/01/24 05:35:21;;;;;;;25.25;17.45;;;;;;;;;;5010683;28;20417;-76
2023/01/24 05:37:48;;;;;;;27.60;18.63;;;;;;;;;;5011878;28;20877;-75
2023/01/24 05:40:14;;;;;;;27.20;17.50;;;;;;;;;;5011691;28;20478;-76
2023/01/24 05:42:43;;;;;;;24.37;17.67;;;;;;;;;;5012492;28;20424;-76
2023/01/24 05:45:10;;;;;;;25.73;17.73;;;;;;;;;;5009424;28;20754;-75
2023/01/24 05:47:36;;;;;;;25.20;17.50;;;;;;;;;;4997826;28;20502;-76
2023/01/24 05:50:03;;;;;;;25.67;17.35;;;;;;;;;;4994893;28;20447;-76
2023/01/24 05:52:29;;;;;;;26.02;17.17;;;;;;;;;;4990841;28;20427;-76
2023/01/24 05:54:55;;;;;;;26.13;18.65;;;;;;;;;;4988417;28;20774;-75
2023/01/24 05:57:21;;;;;;;26.38;17.25;;;;;;;;;;4981512;28;20431;-79
2023/01/24 05:59:47;;;;;;;24.65;17.05;;;;;;;;;;4994477;28;20434;-78
2023/01/24 06:02:13;;;;;;;25.13;17.30;;;;;;;;;;5009608;28;20459;-79
2023/01/24 06:04:39;;;;;;;24.17;16.63;;;;;;;;;;5004482;28;20509;-80
2023/01/24 06:07:05;;;;;;;26.15;17.50;;;;;;;;;;4994904;28;20776;-80
2023/01/24 06:09:31;;;;;;;25.50;17.20;;;;;;;;;;4994896;28;20421;-80
2023/01/24 06:11:57;;;;;;;25.88;17.58;;;;;;;;;;5009063;28;20459;-79
2023/01/24 06:14:23;;;;;;;27.87;18.03;;;;;;;;;;5010530;28;20460;-79
2023/01/24 06:16:49;;;;;;;26.15;17.60;;;;;;;;;;4994728;28;20416;-79
2023/01/24 06:19:16;;;;;;;27.13;18.17;;;;;;;;;;4995352;28;20463;-80
2023/01/24 06:21:46;;;;;;;26.77;18.00;;;;;;;;;;4989998;28;20434;-79
2023/01/24 06:24:17;;;;;;;27.95;18.42;;;;;;;;;;5006367;28;20429;-81
2023/01/24 06:26:44;;;;;;;25.42;17.42;;;;;;;;;;5011153;28;20431;-82
2023/01/24 06:29:11;;;;;;;38.20;18.67;;;;;;;;;;5009991;28;20420;-75
2023/01/24 06:31:56;;;;;;;27.55;18.15;;;;;;;;;;4977565;28;20433;-76
2023/01/24 06:34:25;;;;;;;34.22;24.20;;;;;;;;;;5006424;28;20455;-76
2023/01/24 06:36:57;;;;;;;31.48;22.92;;;;;;;;;;5003845;28;20926;-76
2023/01/24 06:39:23;;;;;;;24.52;17.92;;;;;;;;;;5001463;28;20446;-77
2023/01/24 06:41:49;;;;;;;26.48;17.70;;;;;;;;;;4994353;28;20503;-76
2023/01/24 06:44:16;;;;;;;24.55;16.98;;;;;;;;;;4991837;28;20428;-77
2023/01/24 06:46:42;;;;;;;28.55;17.50;;;;;;;;;;4984356;28;20432;-76
2023/01/24 06:49:10;;;;;;;24.65;17.15;;;;;;;;;;4994370;28;20935;-76
2023/01/24 06:51:36;;;;;;;22.37;15.60;;;;;;;;;;4991885;28;20505;-76
2023/01/24 06:54:02;;;;;;;23.13;15.82;;;;;;;;;;5008883;28;20534;-75
2023/01/24 06:56:28;;;;;;;23.35;16.08;;;;;;;;;;4977155;28;20547;-75
2023/01/24 06:58:54;;;;;;;23.60;16.35;;;;;;;;;;5010037;28;20497;-75
2023/01/24 07:01:20;;;;;;;23.02;16.15;;;;;;;;;;4988667;28;20428;-75
2023/01/24 07:03:49;;;;;;;22.83;15.82;;;;;;;;;;5009944;28;20421;-74
2023/01/24 07:06:15;;;;;;;25.27;16.43;;;;;;;;;;4989868;28;20840;-76
2023/01/24 07:08:41;;;;;;;25.10;16.52;;;;;;;;;;4982864;28;20474;-76
2023/01/24 07:11:07;;;;;;;24.27;16.23;;;;;;;;;;4984840;28;20764;-76
2023/01/24 07:13:33;;;;;;;23.98;15.88;;;;;;;;;;4971911;28;20421;-77
2023/01/24 07:16:01;;;;;;;23.40;15.77;;;;;;;;;;4969751;28;20445;-77
2023/01/24 07:18:27;;;;;;;23.48;16.20;;;;;;;;;;4986185;28;20439;-77
2023/01/24 07:20:53;;;;;;;22.15;15.57;;;;;;;;;;4983600;28;21074;-76
2023/01/24 07:23:23;;;;;;;23.23;16.23;;;;;;;;;;4974726;28;20495;-77
2023/01/24 07:25:49;;;;;;;33.17;21.38;;;;;;;;;;4992908;28;20428;-77
2023/01/24 07:28:15;;;;;;;26.10;17.92;;;;;;;;;;4985923;28;20879;-77
2023/01/24 07:30:42;;;;;;;25.92;17.42;;;;;;;;;;4996511;28;20424;-77
2023/01/24 07:33:08;;;;;;;24.92;17.60;;;;;;;;;;5013498;28;20412;-82
2023/01/24 07:35:34;;;;;;;24.73;16.40;;;;;;;;;;4997025;28;20881;-76
2023/01/24 07:38:00;;;;;;;23.45;15.60;;;;;;;;;;5012495;28;20421;-76
2023/01/24 07:40:26;;;;;;;21.93;14.73;;;;;;;;;;4989930;28;20952;-77
2023/01/24 07:42:52;;;;;;;23.90;17.40;;;;;;;;;;4994380;28;20456;-76
2023/01/24 07:45:20;;;;;;;21.60;14.88;;;;;;;;;;4985786;28;20434;-76
2023/01/24 07:47:46;;;;;;;20.45;14.10;;;;;;;;;;4993331;28;20982;-76
2023/01/24 07:50:12;;;;;;;20.75;14.63;;;;;;;;;;4989299;28;20431;-76
2023/01/24 07:52:38;;;;;;;20.95;13.88;;;;;;;;;;5011779;28;20443;-76
2023/01/24 07:55:04;;;;;;;19.30;13.63;;;;;;;;;;4990018;28;20770;-75
2023/01/24 07:57:30;;;;;;;19.65;13.68;;;;;;;;;;4987891;28;20424;-75
2023/01/24 07:59:56;;;;;;;20.73;14.10;;;;;;;;;;4995850;28;20944;-76
2023/01/24 08:02:22;;;;;;;22.85;14.88;;;;;;;;;;4994176;28;20488;-75
2023/01/24 08:04:49;;;;;;;21.08;14.35;;;;;;;;;;5011007;28;20943;-76
2023/01/24 08:07:18;;;;;;;20.73;15.02;;;;;;;;;;4996565;28;20428;-76
2023/01/24 08:09:45;;;;;;;20.38;14.05;;;;;;;;;;5001501;28;20431;-76
2023/01/24 08:12:11;;;;;;;22.75;14.60;;;;;;;;;;5006039;28;20425;-75
2023/01/24 08:14:37;;;;;;;22.00;14.13;;;;;;;;;;4996415;28;20463;-76
2023/01/24 08:17:03;;;;;;;21.70;14.57;;;;;;;;;;4979821;28;20433;-75
2023/01/24 08:19:31;;;;;;;21.38;14.50;;;;;;;;;;4996975;28;20424;-75
2023/01/24 08:21:57;;;;;;;21.00;13.93;;;;;;;;;;5012958;28;20954;-76
2023/01/24 08:24:23;;;;;;;25.48;13.93;;;;;;;;;;4994530;28;20432;-75
2023/01/24 08:26:50;;;;;;;19.83;13.93;;;;;;;;;;5013200;28;20425;-75
2023/01/24 08:29:17;;;;;;;20.55;13.35;;;;;;;;;;4997544;28;20459;-75
2023/01/24 08:31:43;;;;;;;19.50;13.43;;;;;;;;;;4993937;28;20761;-75
2023/01/24 08:34:12;;;;;;;20.13;12.60;;;;;;;;;;5009097;28;20424;-75
2023/01/24 08:36:38;;;;;;;19.33;12.87;;;;;;;;;;4986938;28;20507;-75
2023/01/24 08:39:04;;;;;;;19.40;13.50;;;;;;;;;;5011262;28;20544;-75
2023/01/24 08:41:31;;;;;;;20.25;13.68;;;;;;;;;;5003134;28;20428;-75
2023/01/24 08:43:57;;;;;;;21.38;13.40;;;;;;;;;;5006247;28;20484;-77
2023/01/24 08:46:23;;;;;;;21.17;14.83;;;;;;;;;;5009476;28;20545;-77
2023/01/24 08:48:49;;;;;;;18.10;13.05;;;;;;;;;;4989686;28;20456;-77
2023/01/24 08:51:15;;;;;;;19.38;13.63;;;;;;;;;;4975506;28;20459;-77
2023/01/24 08:53:41;;;;;;;19.25;13.00;;;;;;;;;;5004180;28;20488;-77
2023/01/24 08:56:07;;;;;;;20.13;12.75;;;;;;;;;;5010873;28;20430;-77
2023/01/24 08:58:33;;;;;;;20.87;12.80;;;;;;;;;;5009244;28;20508;-77
2023/01/24 09:01:00;;;;;;;18.88;12.82;;;;;;;;;;5009079;28;20452;-77
2023/01/24 09:03:27;;;;;;;19.67;13.17;;;;;;;;;;5010278;28;20784;-78
2023/01/24 09:05:59;;;;;;;20.42;12.75;;;;;;;;;;5004916;28;20428;-77
2023/01/24 09:08:25;;;;;;;19.10;13.43;;;;;;;;;;4994168;28;20424;-77
2023/01/24 09:10:51;;;;;;;20.90;14.05;;;;;;;;;;4990015;28;20465;-78
2023/01/24 09:13:17;;;;;;;18.75;13.65;;;;;;;;;;4996372;28;20908;-77
2023/01/24 09:15:43;;;;;;;19.73;13.45;;;;;;;;;;5011829;28;20424;-77
2023/01/24 09:18:09;;;;;;;20.43;13.70;;;;;;;;;;4996497;28;20429;-77
2023/01/24 09:20:35;;;;;;;19.50;13.02;;;;;;;;;;4995633;28;20416;-78
2023/01/24 09:23:09;;;;;;;17.65;12.77;;;;;;;;;;5012670;28;20524;-77
2023/01/24 09:25:35;;;;;;;18.95;13.20;;;;;;;;;;4995312;28;20416;-78
2023/01/24 09:28:01;;;;;;;20.30;13.93;;;;;;;;;;4994572;28;20485;-77
2023/01/24 09:30:27;;;;;;;19.33;13.50;;;;;;;;;;5007087;28;20425;-77
2023/01/24 09:32:53;;;;;;;21.25;13.93;;;;;;;;;;4998622;28;20865;-77
2023/01/24 09:35:19;;;;;;;18.90;13.07;;;;;;;;;;4987912;28;20503;-83
2023/01/24 09:37:45;;;;;;;21.48;14.15;;;;;;;;;;4995357;28;20429;-83
2023/01/24 09:40:22;;;;;;;20.40;14.70;;;;;;;;;;4979186;28;20495;-82
2023/01/24 09:43:02;;;;;;;18.30;12.90;;;;;;;;;;4995080;28;20432;-83
2023/01/24 09:45:31;;;;;;;20.20;13.40;;;;;;;;;;5019869;28;20990;-83
2023/01/24 09:47:59;;;;;;;20.42;14.45;;;;;;;;;;4992767;28;20754;-83
2023/01/24 09:50:29;;;;;;;20.17;13.68;;;;;;;;;;4994488;28;20814;-83
2023/01/24 09:52:57;;;;;;;20.88;14.30;;;;;;;;;;5010506;28;20448;-84
2023/01/24 09:55:28;;;;;;;20.85;14.10;;;;;;;;;;5006486;28;21121;-82
2023/01/24 09:57:59;;;;;;;19.83;14.63;;;;;;;;;;5007233;28;20428;-84
2023/01/24 10:00:30;;;;;;;19.92;14.25;;;;;;;;;;4990056;28;20431;-83
2023/01/24 10:02:58;;;;;;;22.37;15.37;;;;;;;;;;5005083;28;20954;-83
2023/01/24 10:05:30;;;;;;;20.43;14.63;;;;;;;;;;5010090;28;20421;-83
2023/01/24 10:08:11;;;;;;;19.15;14.32;;;;;;;;;;4988920;28;20770;-84
2023/01/24 10:10:37;;;;;;;21.95;15.13;;;;;;;;;;5008055;28;20448;-83
2023/01/24 10:13:17;;;;;;;21.65;14.60;;;;;;;;;;5004498;28;20456;-83
2023/01/24 10:16:03;;;;;;;21.48;14.15;;;;;;;;;;4985259;28;20441;-84
2023/01/24 10:18:29;;;;;;;23.35;16.02;;;;;;;;;;4975437;28;20441;-84
2023/01/24 10:21:14;;;;;;;23.40;15.63;;;;;;;;;;4991614;28;20423;-84
2023/01/24 10:23:42;;;;;;;22.23;15.77;;;;;;;;;;5003977;28;20476;-85
2023/01/24 10:26:19;;;;;;;22.60;16.15;;;;;;;;;;5002469;28;20432;-84
2023/01/24 10:28:53;;;;;;;22.77;15.43;;;;;;;;;;5006835;28;20426;-85
2023/01/24 10:31:23;;;;;;;24.73;16.60;;;;;;;;;;4999179;28;20796;-84
2023/01/24 10:33:52;;;;;;;21.20;15.03;;;;;;;;;;5005586;28;20532;-83
2023/01/24 10:36:37;;;;;;;22.00;15.52;;;;;;;;;;4983508;28;20445;-83
2023/01/24 10:39:04;;;;;;;22.05;15.95;;;;;;;;;;5010367;28;20750;-83
2023/01/24 10:41:31;;;;;;;21.23;15.40;;;;;;;;;;5004024;28;20465;-82
2023/01/24 10:44:02;;;;;;;22.50;16.42;;;;;;;;;;5008288;28;20456;-83
2023/01/24 10:46:34;;;;;;;22.02;15.40;;;;;;;;;;5010960;28;20432;-83
2023/01/24 10:49:01;;;;;;;23.38;15.20;;;;;;;;;;4992910;28;20433;-83
2023/01/24 10:51:29;;;;;;;22.67;14.88;;;;;;;;;;5006902;28;20425;-84
2023/01/24 10:54:14;;;;;;;21.00;15.32;;;;;;;;;;4983204;28;20440;-84
2023/01/24 10:56:44;;;;;;;21.40;15.85;;;;;;;;;;5011263;28;20405;-84
2023/01/24 10:59:14;;;;;;;23.27;16.42;;;;;;;;;;4978329;28;20436;-84
2023/01/24 11:01:44;;;;;;;21.67;14.82;;;;;;;;;;4995260;28;20459;-83
2023/01/24 11:04:23;;;;;;;21.13;14.48;;;;;;;;;;4984093;28;20407;-83
2023/01/24 11:06:52;;;;;;;22.42;14.93;;;;;;;;;;5010093;28;20431;-83
2023/01/24 11:09:25;;;;;;;19.23;14.07;;;;;;;;;;4996098;28;20421;-84
2023/01/24 11:11:53;;;;;;;24.63;15.65;;;;;;;;;;5008897;28;21015;-83
2023/01/24 11:14:23;;;;;;;18.73;14.27;;;;;;;;;;5010508;28;20417;-83
2023/01/24 11:16:51;;;;;;;19.90;14.18;;;;;;;;;;5001473;28;20426;-84
2023/01/24 11:19:22;;;;;;;20.70;14.48;;;;;;;;;;5003500;28;20421;-83
2023/01/24 11:21:54;;;;;;;20.25;13.95;;;;;;;;;;4994297;28;20488;-84
2023/01/24 11:24:21;;;;;;;22.35;13.73;;;;;;;;;;4990936;28;20462;-84
2023/01/24 11:26:52;;;;;;;20.40;13.80;;;;;;;;;;4990140;28;20429;-85
2023/01/24 11:29:18;;;;;;;21.33;14.40;;;;;;;;;;5007941;28;20496;-85
2023/01/24 11:31:46;;;;;;;20.00;13.73;;;;;;;;;;5008915;28;20425;-83
2023/01/24 11:34:15;;;;;;;21.05;14.68;;;;;;;;;;5009509;28;20471;-85
2023/01/24 11:36:44;;;;;;;20.88;14.63;;;;;;;;;;5001037;28;20434;-85
2023/01/24 11:39:29;;;;;;;22.27;15.20;;;;;;;;;;4994004;28;20447;-84
2023/01/24 11:42:00;;;;;;;21.00;14.68;;;;;;;;;;4983686;28;20467;-83
2023/01/24 11:44:32;;;;;;;20.73;14.88;;;;;;;;;;5007486;28;20443;-83
2023/01/24 11:47:04;;;;;;;23.27;15.75;;;;;;;;;;4992067;28;20436;-83
2023/01/24 11:49:52;;;;;;;20.42;14.20;;;;;;;;;;5009528;28;20478;-82
2023/01/24 11:52:24;;;;;;;24.65;14.43;;;;;;;;;;5011290;28;20430;-83
2023/01/24 11:55:17;;;;;;;21.92;14.55;;;;;;;;;;4974884;28;20501;-82
2023/01/24 11:58:04;;;;;;;21.83;14.00;;;2.80;99.90;;;;;;4958802;28;20522;-75
2023/01/24 12:00:31;;;;;;;21.07;14.10;;;;;;;;;;4989858;28;20410;-76
2023/01/24 12:03:16;;;;;;;19.95;14.45;;;;;;;;;;4984732;28;20436;-76
2023/01/24 12:05:48;;;;;;;22.40;14.13;;;;;;;;;;5006936;28;20424;-78
2023/01/24 12:08:29;;;;;;;20.77;14.43;;;;;;;;;;4991370;28;20539;-76
2023/01/24 12:11:01;;;;;;;20.60;14.50;;;;;;;;;;4991281;28;20420;-76
2023/01/24 12:13:27;;;;;;;21.10;14.93;;;;;;;;;;4992528;28;20464;-76
2023/01/24 12:15:57;;;;;;;22.15;15.18;;;;;;;;;;4993748;28;20989;-76
2023/01/24 12:18:23;;;;;;;20.92;15.07;;;;;;;;;;5008794;28;20420;-77
2023/01/24 12:20:57;;;;;;;21.80;14.93;;;;;;;;;;4993280;28;20427;-76
2023/01/24 12:23:33;;;;;;;20.95;15.30;;;;;;;;;;5005524;28;20485;-77
2023/01/24 12:26:05;;;;;;;21.55;15.40;;;;;;;;;;5005777;28;20507;-76
2023/01/24 12:28:34;;;;;;;21.88;15.05;;;;;;;;;;4991278;28;20519;-77
2023/01/24 12:31:02;;;;;;;23.25;15.32;;;;;;;;;;5009350;28;20419;-77
2023/01/24 12:33:33;;;;;;;22.10;14.98;;;;;;;;;;5010112;28;20515;-77
2023/01/24 12:36:07;;;;;;;20.95;14.63;;;;;;;;;;5008779;28;20803;-77
2023/01/24 12:38:33;;;;;;;21.92;15.38;;;;;;;;;;5003307;28;20502;-77
2023/01/24 12:41:25;;;;;;;20.55;14.63;;;2.60;99.90;;;;;;5006688;28;20433;-78
2023/01/24 12:44:00;;;;;;;20.10;13.85;;;;;;;;;;5002851;28;20506;-77
2023/01/24 12:46:32;;;;;;;20.08;14.60;;;;;;;;;;5009449;28;20432;-78
2023/01/24 12:49:21;;;;;;;25.70;16.30;;;;;;;;;;5006540;28;21004;-77
2023/01/24 12:51:53;;;;;;;31.00;19.57;;;;;;;;;;4998819;28;20447;-78
2023/01/24 12:54:22;;;;;;;20.57;14.17;;;;;;;;;;4993633;28;20420;-78
2023/01/24 12:56:59;;;;;;;20.77;14.47;;;;;;;;;;4992263;28;20516;-78
2023/01/24 12:59:27;;;;;;;21.40;16.05;;;;;;;;;;5011722;28;20490;-78
2023/01/24 13:02:12;;;;;;;19.08;13.35;;;;;;;;;;5012033;28;20432;-77
2023/01/24 13:04:58;;;;;;;20.33;14.33;;;;;;;;;;4986703;28;20506;-77
2023/01/24 13:07:24;;;;;;;20.60;14.47;;;;;;;;;;5006760;28;20956;-78
2023/01/24 13:09:56;;;;;;;21.73;14.98;;;;;;;;;;4985838;28;20455;-78
2023/01/24 13:12:24;;;;;;;21.03;14.77;;;;;;;;;;4984777;28;20424;-78
2023/01/24 13:14:53;;;;;;;20.45;14.68;;;;;;;;;;5012166;28;20434;-77
2023/01/24 13:17:19;;;;;;;20.50;14.55;;;;;;;;;;5009580;28;20427;-77
2023/01/24 13:19:51;;;;;;;19.95;14.63;;;;;;;;;;5007089;28;20424;-77
2023/01/24 13:22:32;;;;;;;22.80;15.53;;;;;;;;;;5005150;28;20474;-78
2023/01/24 13:24:58;;;;;;;21.02;15.43;;;;;;;;;;5001781;28;20424;-77
2023/01/24 13:27:41;;;;;;;22.33;15.37;;;;;;;;;;5003201;28;20512;-78
2023/01/24 13:30:10;;;;;;;21.50;14.85;;;;;;;;;;5004275;28;20987;-78
2023/01/24 13:32:38;;;;;;;20.40;14.52;;;;;;;;;;5013283;28;20423;-78
2023/01/24 13:35:15;;;;;;;21.70;15.43;;;;;;;;;;5007676;28;20488;-77
2023/01/24 13:37:41;;;;;;;21.63;15.63;;;;;;;;;;4986508;28;20429;-79
2023/01/24 13:40:16;;;;;;;22.45;16.23;;;;;;;;;;5006013;28;20982;-79
2023/01/24 13:42:43;;;;;;;21.57;15.23;;;;;;;;;;5005411;28;20435;-78
2023/01/24 13:45:41;;;;;;;22.10;15.32;;;;;;;;;;4983080;28;20433;-78
2023/01/24 13:48:25;;;;;;;21.20;15.23;;;;;;;;;;4978813;28;20437;-78
2023/01/24 13:51:11;;;;;;;21.67;15.65;;;;;;;;;;5008187;28;20500;-78
2023/01/24 13:53:58;;;;;;;21.33;15.48;;;;;;;;;;4991994;28;20640;-78
2023/01/24 13:56:24;;;;;;;23.40;17.02;;;;;;;;;;5006652;28;20912;-79
2023/01/24 13:58:54;;;;;;;22.85;16.02;;;;;;;;;;4986048;28;20428;-78
2023/01/24 14:01:21;;;;;;;21.50;15.07;;;;;;;;;;4986815;28;21041;-78
2023/01/24 14:04:03;;;;;;;21.98;14.93;;;;;;;;;;4984978;28;20908;-77
2023/01/24 14:06:40;;;;;;;22.08;15.32;;;;;;;;;;5009095;28;20796;-78
2023/01/24 14:09:23;;;;;;;21.42;15.13;;;;;;;;;;4988921;28;20423;-78
2023/01/24 14:12:04;;;;;;;20.30;14.07;;;;;;;;;;4989624;28;20470;-77
2023/01/24 14:14:37;;;;;;;21.47;14.60;;;;;;;;;;4989750;28;20505;-78
2023/01/24 14:17:05;;;;;;;23.10;14.60;;;;;;;;;;4991497;28;20428;-77
2023/01/24 14:19:33;;;;;;;22.77;14.68;;;;;;;;;;4991160;28;20430;-78
2023/01/24 14:22:04;;;;;;;21.53;14.47;;;;;;;;;;5008543;28;20491;-77
2023/01/24 14:24:32;;;;;;;20.87;14.50;;;;;;;;;;4986238;28;20524;-78
2023/01/24 14:26:59;;;;;;;20.45;14.43;;;;;;;;;;4987498;28;20788;-78
2023/01/24 14:29:45;;;;;;;20.23;14.50;;;;;;;;;;5008831;28;20429;-76
2023/01/24 14:32:23;;;;;;;22.63;15.60;;;;;;;;;;4992506;28;20420;-75
2023/01/24 14:34:53;;;;;;;20.30;14.80;;;;;;;;;;4993887;28;20429;-82
2023/01/24 14:37:19;;;;;;;26.13;17.50;;;;;;;;;;4992390;28;20443;-83
2023/01/24 14:39:47;;;;;;;22.17;15.30;;;;;;;;;;4981467;28;20465;-83
2023/01/24 14:42:14;;;;;;;22.50;15.75;;;;;;;;;;4992070;28;20424;-83
2023/01/24 14:44:54;;;;;;;22.08;15.77;;;;;;;;;;5009839;28;20424;-83
2023/01/24 14:47:25;;;;;;;21.08;14.75;;;;;;;;;;5002804;28;20460;-82
2023/01/24 14:49:55;;;;;;;24.00;15.70;;;;;;;;;;4992659;28;20840;-82
2023/01/24 14:52:23;;;;;;;21.05;14.98;;;;;;;;;;5000681;28;20467;-83
2023/01/24 14:54:52;;;;;;;22.23;14.95;;;;;;;;;;5004412;28;20428;-83
2023/01/24 14:57:26;;;;;;;21.00;14.68;;;;;;;;;;5007251;28;20440;-83
2023/01/24 15:00:05;;;;;;;22.02;15.88;;;;;;;;;;5005401;28;20447;-83
2023/01/24 15:02:32;;;;;;;23.88;15.93;;;;;;;;;;5000969;28;20440;-83